Time;durP1;ratioP1;P1;durP2;ratioP2;P2;SDS_P1;SDS_P2;PMS_P1;PMS_P2;Temp;Humidity;BMP_temperature;BMP_pressure;BME280_temperature;BME280_humidity;BME280_pressure;Samples;Min_cycle;Max_cycle;Signal;HPM_P1;HPM_P2
2021/05/28 00:00:40;;;;;;;6.38;3.26;;;;;;;17.96;62.88;100708.88;449839;116;924419;-70
2021/05/28 00:01:44;;;;;;;6.31;3.17;;;;;;;17.96;62.92;100702.53;450599;117;924166;-71
2021/05/28 00:02:48;;;;;;;6.26;3.01;;;;;;;17.92;62.98;100705.79;450966;115;924178;-72
2021/05/28 00:03:52;;;;;;;8.06;3.42;;;;;;;17.90;63.16;100710.75;451023;115;924819;-69
2021/05/28 00:04:56;;;;;;;7.74;3.04;;;;;;;17.87;63.23;100711.25;450196;115;922916;-73
2021/05/28 00:06:00;;;;;;;7.19;3.08;;;;;;;17.86;63.31;100704.06;450296;117;924080;-72
2021/05/28 00:07:03;;;;;;;9.69;3.77;;;;;;;17.87;63.47;100702.14;452468;117;923035;-72
2021/05/28 00:08:07;;;;;;;4.51;3.35;;;;;;;17.86;63.61;100698.55;459370;113;923366;-71
2021/05/28 00:09:11;;;;;;;5.37;3.10;;;;;;;17.85;63.64;100707.95;458933;113;922466;-70
2021/05/28 00:10:15;;;;;;;4.60;2.56;;;;;;;17.83;63.66;100707.36;459360;115;931059;-72
2021/05/28 00:11:18;;;;;;;5.25;3.22;;;;;;;17.82;63.70;100697.41;449743;117;922360;-73
2021/05/28 00:12:22;;;;;;;5.99;3.19;;;;;;;17.81;63.84;100701.26;458956;114;923189;-72
2021/05/28 00:13:26;;;;;;;6.47;3.08;;;;;;;17.80;63.94;100699.62;458584;115;925020;-70
2021/05/28 00:14:30;;;;;;;5.34;2.91;;;;;;;17.79;63.98;100697.95;452689;117;932843;-70
2021/05/28 00:15:34;;;;;;;6.46;3.48;;;;;;;17.79;64.00;100699.87;448245;116;923122;-72
2021/05/28 00:16:38;;;;;;;5.78;3.05;;;;;;;17.78;64.14;100701.79;458373;115;923092;-72
2021/05/28 00:17:42;;;;;;;5.62;3.05;;;;;;;17.78;64.31;100699.03;451647;116;930617;-71
2021/05/28 00:18:46;;;;;;;8.18;3.46;;;;;;;17.82;64.38;100704.85;451512;117;930435;-72
2021/05/28 00:19:49;;;;;;;6.89;3.03;;;;;;;17.84;64.44;100698.00;448826;116;922736;-72
2021/05/28 00:20:53;;;;;;;6.35;3.35;;;;;;;17.88;64.41;100695.54;458139;114;923019;-71
2021/05/28 00:21:57;;;;;;;10.06;4.23;;;;;;;17.90;64.47;100696.12;458680;114;922614;-72
2021/05/28 00:23:01;;;;;;;7.07;3.66;;;;;;;17.92;64.44;100697.52;458691;114;930481;-71
2021/05/28 00:24:06;;;;;;;7.21;2.99;;;;;;;17.94;64.29;100694.50;459190;113;930599;-71
2021/05/28 00:25:11;;;;;;;5.94;2.80;;;;;;;17.96;64.22;100692.33;456404;115;930389;-71
2021/05/28 00:26:17;;;;;;;5.82;2.56;;;;;;;17.98;64.13;100694.80;460198;114;922580;-70
2021/05/28 00:27:21;;;;;;;5.78;2.56;;;;;;;17.99;64.04;100690.95;456560;116;922916;-72
2021/05/28 00:28:24;;;;;;;6.65;2.94;;;;;;;18.00;64.03;100692.62;460842;113;922548;-71
2021/05/28 00:29:28;;;;;;;7.93;3.41;;;;;;;18.00;64.01;100684.34;460818;114;922672;-70
2021/05/28 00:30:34;;;;;;;4.24;3.20;;;;;;;17.99;63.97;100688.20;461237;113;930620;-70
2021/05/28 00:31:38;;;;;;;6.51;3.74;;;;;;;17.98;63.98;100690.12;461255;114;922996;-72
2021/05/28 00:32:42;;;;;;;6.03;3.08;;;;;;;17.96;63.98;100692.33;448705;117;930911;-72
2021/05/28 00:33:47;;;;;;;8.45;3.43;;;;;;;17.95;64.01;100693.42;464001;111;923344;-71
2021/05/28 00:34:52;;;;;;;5.47;2.49;;;;;;;17.93;64.08;100692.83;472863;111;922614;-72
2021/05/28 00:35:56;;;;;;;5.82;2.88;;;;;;;17.91;64.13;100695.88;473299;111;922971;-72
2021/05/28 00:36:59;;;;;;;7.30;3.10;;;;;;;17.91;64.18;100695.03;474024;111;922539;-72
2021/05/28 00:38:04;;;;;;;14.75;3.32;;;;;;;17.91;64.24;100690.36;472673;111;923941;-70
2021/05/28 00:39:07;;;;;;;7.01;3.14;;;;;;;17.91;64.32;100698.63;472098;111;922662;-70
2021/05/28 00:40:14;;;;;;;3.92;2.80;;;;;;;17.93;64.24;100693.67;473250;111;922483;-71
2021/05/28 00:41:18;;;;;;;6.22;2.65;;;;;;;17.95;64.17;100689.82;473478;111;922410;-71
2021/05/28 00:42:21;;;;;;;4.08;2.72;;;;;;;17.97;64.17;100693.16;471830;111;924508;-71
2021/05/28 00:43:25;;;;;;;5.69;2.89;;;;;;;17.99;64.11;100685.44;471113;111;929486;-71
2021/05/28 00:44:31;;;;;;;9.63;3.09;;;;;;;18.00;64.09;100687.95;471138;111;927822;-71
2021/05/28 00:45:35;;;;;;;3.92;2.64;;;;;;;18.01;64.03;100686.86;472891;111;923099;-71
2021/05/28 00:46:40;;;;;;;4.61;2.54;;;;;;;18.01;63.94;100688.78;472487;111;922830;-72
2021/05/28 00:47:43;;;;;;;4.71;2.48;;;;;;;17.99;63.93;100686.27;472748;111;924005;-70
2021/05/28 00:48:49;;;;;;;4.81;2.59;;;;;;;17.97;63.98;100688.48;473404;111;933007;-71
2021/05/28 00:49:53;;;;;;;7.74;2.64;;;;;;;17.96;64.07;100695.09;472899;111;927957;-71
2021/05/28 00:50:57;;;;;;;6.62;2.99;;;;;;;17.95;64.12;100693.42;472618;111;922990;-71
2021/05/28 00:52:00;;;;;;;10.14;2.83;;;;;;;17.97;64.09;100698.68;472515;111;922782;-71
2021/05/28 00:53:05;;;;;;;9.52;3.06;;;;;;;17.95;64.06;100690.66;473007;111;922449;-71
2021/05/28 00:54:10;;;;;;;9.52;3.11;;;;;;;17.96;64.11;100694.25;472028;111;922961;-71
2021/05/28 00:55:14;;;;;;;5.61;2.97;;;;;;;17.95;64.12;100685.14;471711;111;922512;-72
2021/05/28 00:56:19;;;;;;;5.08;2.68;;;;;;;17.95;64.10;100692.58;472101;111;924478;-71
2021/05/28 00:57:27;;;;;;;4.20;2.76;;;;;;;17.91;64.08;100695.88;473349;111;924501;-70
2021/05/28 00:58:31;;;;;;;6.13;2.85;;;;;;;17.87;64.10;100694.70;472871;111;924002;-72
2021/05/28 00:59:37;;;;;;;5.67;2.69;;;;;;;17.81;64.15;100694.91;472388;111;923755;-72
2021/05/28 01:00:43;;;;;;;6.91;2.89;;;;;;;17.77;64.23;100694.60;473201;111;924087;-72
2021/05/28 01:01:47;;;;;;;4.39;2.69;;;;;;;17.71;64.37;100695.64;471483;111;922612;-71
2021/05/28 01:02:52;;;;;;;5.18;2.72;;;;;;;17.67;64.56;100693.66;471790;111;923792;-72
2021/05/28 01:03:56;;;;;;;5.87;3.21;;;;;;;17.66;64.75;100694.75;472845;111;925281;-71
2021/05/28 01:05:00;;;;;;;7.81;3.29;;;;;;;17.63;64.89;100693.36;472365;111;923797;-72
2021/05/28 01:06:05;;;;;;;9.09;3.04;;;;;;;17.61;65.03;100684.50;472327;111;931821;-71
2021/05/28 01:07:09;;;;;;;6.61;3.18;;;;;;;17.59;65.16;100686.64;472916;111;932631;-69
2021/05/28 01:08:13;;;;;;;6.75;2.82;;;;;;;17.58;65.27;100686.92;471628;111;925436;-71
2021/05/28 01:09:17;;;;;;;4.62;2.95;;;;;;;17.57;65.39;100686.08;471850;111;924040;-71
2021/05/28 01:10:22;;;;;;;6.72;3.01;;;;;;;17.57;65.45;100688.84;472751;111;925970;-72
2021/05/28 01:11:25;;;;;;;6.35;2.98;;;;;;;17.58;65.50;100687.76;462607;113;926363;-72
2021/05/28 01:12:29;;;;;;;6.36;2.84;;;;;;;17.60;65.49;100690.27;458506;115;923662;-72
2021/05/28 01:13:33;;;;;;;5.21;2.77;;;;;;;17.61;65.51;100691.94;458332;114;932118;-71
2021/05/28 01:14:37;;;;;;;10.94;3.87;;;;;;;17.63;65.43;100687.01;459360;115;930483;-71
2021/05/28 01:15:41;;;;;;;8.19;2.96;;;;;;;17.65;65.29;100690.31;456735;113;923197;-71
2021/05/28 01:16:45;;;;;;;5.62;2.81;;;;;;;17.68;65.02;100692.58;457248;114;922615;-71
2021/05/28 01:17:49;;;;;;;5.65;3.12;;;;;;;17.69;64.89;100694.25;457191;115;932438;-71
2021/05/28 01:18:52;;;;;;;7.41;3.01;;;;;;;17.72;64.72;100693.72;455857;114;934075;-72
2021/05/28 01:19:56;;;;;;;5.72;2.91;;;;;;;17.74;64.55;100686.86;459007;114;924109;-70
2021/05/28 01:21:00;;;;;;;6.87;2.64;;;;;;;17.76;64.34;100692.09;447544;116;927033;-70
2021/05/28 01:22:07;;;;;;;5.85;2.63;;;;;;;17.78;64.24;100690.76;450554;115;930414;-72
2021/05/28 01:23:12;;;;;;;6.94;3.40;;;;;;;17.79;64.12;100694.35;452448;115;932020;-73
2021/05/28 01:24:15;;;;;;;6.99;2.58;;;;;;;17.78;64.03;100690.76;458797;115;922324;-71
2021/05/28 01:25:23;;;;;;;9.39;2.94;;;;;;;17.77;64.03;100691.84;451243;115;922643;-71
2021/05/28 01:26:27;;;;;;;4.73;3.22;;;;;;;17.77;64.09;100694.60;452588;115;932026;-72
2021/05/28 01:27:31;;;;;;;4.46;2.81;;;;;;;17.77;64.10;100693.77;453135;117;922559;-71
2021/05/28 01:28:35;;;;;;;5.88;2.62;;;;;;;17.74;64.13;100692.38;452760;117;923371;-71
2021/05/28 01:29:39;;;;;;;5.19;3.27;;;;;;;17.72;64.12;100685.44;452453;115;922420;-71
2021/05/28 01:30:43;;;;;;;4.81;3.24;;;;;;;17.69;64.12;100683.22;452297;115;930442;-71
2021/05/28 01:31:47;;;;;;;4.28;2.41;;;;;;;17.65;64.17;100696.67;451771;117;923316;-70
2021/05/28 01:32:51;;;;;;;3.61;2.74;;;;;;;17.64;64.21;100688.68;453344;115;922492;-72
2021/05/28 01:33:54;;;;;;;5.55;2.48;;;;;;;17.63;64.24;100685.08;451807;115;923320;-72
2021/05/28 01:34:58;;;;;;;7.14;2.55;;;;;;;17.64;64.23;100694.20;453401;115;922551;-71
2021/05/28 01:36:05;;;;;;;4.38;2.85;;;;;;;17.64;64.23;100689.48;451670;116;924017;-69
2021/05/28 01:37:09;;;;;;;5.87;2.31;;;;;;;17.62;64.20;100688.93;451970;116;922809;-69
2021/05/28 01:38:13;;;;;;;4.68;2.52;;;;;;;17.61;64.17;100692.77;443985;118;926648;-67
2021/05/28 01:39:17;;;;;;;3.73;2.92;;;;;;;17.59;64.23;100691.34;444660;116;925055;-68
2021/05/28 01:40:23;;;;;;;4.13;3.02;;;;;;;17.58;64.28;100684.16;449880;116;930520;-69
2021/05/28 01:41:30;;;;;;;3.98;2.63;;;;;;;17.58;64.32;100689.67;450461;115;930561;-68
2021/05/28 01:42:34;;;;;;;11.27;3.06;;;;;;;17.56;64.36;100689.92;450257;115;922863;-69
2021/05/28 01:43:39;;;;;;;4.62;2.63;;;;;;;17.56;64.35;100692.69;452573;115;923307;-67
2021/05/28 01:44:45;;;;;;;8.66;2.86;;;;;;;17.56;64.38;100689.92;458287;115;922419;-68
2021/05/28 01:45:49;;;;;;;4.98;2.69;;;;;;;17.58;64.24;100686.92;450584;115;922640;-68
2021/05/28 01:46:53;;;;;;;12.19;2.74;;;;;;;17.60;64.09;100688.34;454260;114;922596;-69
2021/05/28 01:47:56;;;;;;;4.06;2.87;;;;;;;17.63;63.94;100682.33;458121;113;922987;-68
2021/05/28 01:49:02;;;;;;;5.59;2.36;;;;;;;17.67;63.75;100685.39;458870;115;922475;-69
2021/05/28 01:50:09;;;;;;;5.52;2.38;;;;;;;17.70;63.63;100682.10;458532;115;930526;-69
2021/05/28 01:51:13;;;;;;;5.48;2.38;;;;;;;17.73;63.49;100687.95;459300;113;923123;-69
2021/05/28 01:52:16;;;;;;;4.71;2.64;;;;;;;17.77;63.34;100682.73;458648;113;922786;-69
2021/05/28 01:53:23;;;;;;;2.98;2.44;;;;;;;17.78;63.22;100685.24;458962;115;930594;-68
2021/05/28 01:54:26;;;;;;;4.68;2.15;;;;;;;17.80;63.18;100684.99;458209;115;930407;-68
2021/05/28 01:55:30;;;;;;;4.49;2.06;;;;;;;17.81;63.15;100684.70;458546;113;924371;-68
2021/05/28 01:56:35;;;;;;;9.22;2.51;;;;;;;17.84;63.08;100677.86;458409;113;934047;-68
2021/05/28 01:57:40;;;;;;;4.33;2.38;;;;;;;17.86;62.98;100690.28;458342;115;930424;-68
2021/05/28 01:58:44;;;;;;;5.06;2.73;;;;;;;17.87;62.91;100683.67;449787;116;922704;-69
2021/05/28 01:59:47;;;;;;;6.71;2.79;;;;;;;17.89;62.97;100683.42;450675;115;922864;-67
2021/05/28 02:00:55;;;;;;;4.91;2.40;;;;;;;17.89;63.01;100681.50;450443;115;926782;-68
2021/05/28 02:01:58;;;;;;;5.56;2.63;;;;;;;17.91;63.14;100684.84;452581;117;924084;-68
2021/05/28 02:03:03;;;;;;;6.81;2.30;;;;;;;17.95;63.13;100684.30;456733;115;923396;-69
2021/05/28 02:04:07;;;;;;;4.32;2.65;;;;;;;17.98;63.09;100678.25;457122;113;932708;-67
2021/05/28 02:05:13;;;;;;;7.34;2.81;;;;;;;17.99;63.04;100679.92;458702;115;922553;-68
2021/05/28 02:06:17;;;;;;;4.77;2.56;;;;;;;17.99;62.90;100674.41;459259;115;922694;-68
2021/05/28 02:07:22;;;;;;;5.02;2.60;;;;;;;17.98;62.85;100679.09;445451;117;924201;-69
2021/05/28 02:08:27;;;;;;;4.98;2.26;;;;;;;17.96;63.01;100680.45;448237;115;924035;-68
2021/05/28 02:09:32;;;;;;;3.48;2.18;;;;;;;17.95;63.11;100678.78;456978;114;926337;-69
2021/05/28 02:10:40;;;;;;;3.72;2.63;;;;;;;17.91;63.18;100678.48;457556;115;922361;-68
2021/05/28 02:11:45;;;;;;;5.62;3.20;;;;;;;17.90;63.17;100682.33;449866;117;924185;-68
2021/05/28 02:12:48;;;;;;;4.11;2.44;;;;;;;17.90;63.22;100674.89;458660;114;923630;-68
2021/05/28 02:13:53;;;;;;;5.24;2.15;;;;;;;17.93;63.22;100676.28;459377;113;925637;-68
2021/05/28 02:14:59;;;;;;;3.48;2.24;;;;;;;17.95;63.22;100673.27;459080;115;923974;-69
2021/05/28 02:16:04;;;;;;;5.37;2.64;;;;;;;17.96;63.18;100678.53;458406;115;925162;-68
2021/05/28 02:17:10;;;;;;;5.26;2.58;;;;;;;17.98;62.98;100681.01;458557;113;926382;-67
2021/05/28 02:18:13;;;;;;;3.58;2.39;;;;;;;18.00;62.87;100676.91;458220;115;931998;-69
2021/05/28 02:19:18;;;;;;;6.12;2.14;;;;;;;18.02;62.78;100671.97;451341;117;924043;-67
2021/05/28 02:20:23;;;;;;;5.69;2.02;;;;;;;18.03;62.62;100670.85;450298;117;923941;-67
2021/05/28 02:21:28;;;;;;;4.71;2.51;;;;;;;18.06;62.39;100675.87;452923;114;925066;-69
2021/05/28 02:22:32;;;;;;;4.64;2.20;;;;;;;18.08;62.26;100672.86;456081;116;926968;-69
2021/05/28 02:23:36;;;;;;;3.82;2.81;;;;;;;18.08;62.11;100670.09;457627;115;926119;-69
2021/05/28 02:24:40;;;;;;;4.43;2.62;;;;;;;18.10;61.87;100673.41;456459;116;925669;-69
2021/05/28 02:25:44;;;;;;;4.54;2.24;;;;;;;18.12;61.71;100679.50;456561;115;932420;-69
2021/05/28 02:26:51;;;;;;;4.40;2.54;;;;;;;18.13;61.69;100684.77;457065;113;922854;-70
2021/05/28 02:27:55;;;;;;;3.75;2.34;;;;;;;18.14;61.69;100683.66;456803;113;924048;-69
2021/05/28 02:28:59;;;;;;;4.66;2.26;;;;;;;18.16;61.74;100672.36;457232;114;923945;-68
2021/05/28 02:30:06;;;;;;;4.85;2.75;;;;;;;18.17;61.68;100668.51;457906;114;931158;-68
2021/05/28 02:31:10;;;;;;;13.59;2.98;;;;;;;18.19;61.71;100682.89;456080;116;924072;-70
2021/05/28 02:32:14;;;;;;;5.88;2.58;;;;;;;18.20;61.74;100681.77;457526;115;922753;-69
2021/05/28 02:33:19;;;;;;;5.74;2.83;;;;;;;18.20;61.70;100670.73;463377;114;930602;-69
2021/05/28 02:34:24;;;;;;;4.70;2.32;;;;;;;18.21;61.68;100672.40;455862;114;924774;-68
2021/05/28 02:35:28;;;;;;;5.32;2.40;;;;;;;18.21;61.71;100669.64;458383;115;926991;-70
2021/05/28 02:36:33;;;;;;;3.93;2.43;;;;;;;18.22;61.85;100672.14;463975;113;923412;-69
2021/05/28 02:37:37;;;;;;;5.89;2.71;;;;;;;18.22;61.91;100661.11;452259;116;922773;-68
2021/05/28 02:38:41;;;;;;;7.14;2.97;;;;;;;18.24;61.95;100663.61;456496;114;923211;-68
2021/05/28 02:39:44;;;;;;;7.02;4.07;;;;;;;18.25;62.02;100662.49;457194;115;923158;-69
2021/05/28 02:40:49;;;;;;;6.58;4.20;;;;;;;18.26;62.04;100658.64;455574;116;930605;-67
2021/05/28 02:41:52;;;;;;;7.28;4.52;;;;;;;18.27;62.08;100666.67;455066;115;924298;-68
2021/05/28 02:42:56;;;;;;;10.84;4.81;;;;;;;18.28;62.18;100671.09;457163;115;924461;-69
2021/05/28 02:44:01;;;;;;;9.96;4.37;;;;;;;18.29;62.22;100675.53;457675;114;922521;-67
2021/05/28 02:45:07;;;;;;;5.79;4.22;;;;;;;18.29;62.17;100658.97;458712;115;922991;-67
2021/05/28 02:46:11;;;;;;;10.92;5.49;;;;;;;18.30;62.15;100673.60;458322;115;922480;-68
2021/05/28 02:47:15;;;;;;;8.48;5.04;;;;;;;18.29;62.19;100669.17;458458;114;923004;-68
2021/05/28 02:48:19;;;;;;;8.58;5.76;;;;;;;18.27;62.29;100660.31;453679;115;922671;-68
2021/05/28 02:49:23;;;;;;;7.93;5.16;;;;;;;18.27;62.40;100654.79;453823;116;930490;-68
2021/05/28 02:50:32;;;;;;;8.02;4.86;;;;;;;18.27;62.45;100657.55;452890;116;923083;-68
2021/05/28 02:51:32;;;;;;;8.62;4.48;;;;;;;18.26;62.51;100653.13;457759;115;922543;-70
2021/05/28 02:52:36;;;;;;;6.96;3.71;;;;;;;18.25;62.54;100662.49;453241;116;922576;-69
2021/05/28 02:53:40;;;;;;;7.24;3.21;;;;;;;18.25;62.55;100655.05;459155;115;924055;-69
2021/05/28 02:54:45;;;;;;;6.04;3.11;;;;;;;18.27;62.57;100654.79;458358;114;922716;-69
2021/05/28 02:55:48;;;;;;;7.60;3.92;;;;;;;18.27;62.60;100652.86;458042;114;922922;-68
2021/05/28 02:56:52;;;;;;;4.84;3.29;;;;;;;18.28;62.64;100656.46;457225;115;930590;-67
2021/05/28 02:57:56;;;;;;;4.30;2.41;;;;;;;18.28;62.70;100656.46;453067;116;922460;-68
2021/05/28 02:59:00;;;;;;;4.68;2.65;;;;;;;18.25;62.71;100657.80;457140;113;926034;-68
2021/05/28 03:00:07;;;;;;;6.36;2.87;;;;;;;18.23;62.76;100662.78;456532;114;922412;-67
2021/05/28 03:01:16;;;;;;;4.37;2.10;;;;;;;18.23;62.73;100661.94;463459;113;922666;-68
2021/05/28 03:02:18;;;;;;;4.30;2.36;;;;;;;18.24;62.78;100660.85;453290;116;922531;-70
2021/05/28 03:03:22;;;;;;;6.01;2.54;;;;;;;18.25;62.89;100652.28;458496;115;925026;-68
2021/05/28 03:04:27;;;;;;;4.89;2.92;;;;;;;18.27;62.89;100655.62;457698;115;926139;-69
2021/05/28 03:05:31;;;;;;;6.60;4.44;;;;;;;18.30;62.78;100657.04;458986;114;923978;-69
2021/05/28 03:06:36;;;;;;;5.82;3.73;;;;;;;18.31;62.69;100655.92;458561;115;922623;-67
2021/05/28 03:07:41;;;;;;;6.61;4.12;;;;;;;18.34;62.57;100658.17;459458;114;922382;-67
2021/05/28 03:08:45;;;;;;;3.74;2.84;;;;;;;18.37;62.49;100659.55;450901;117;922598;-67
2021/05/28 03:09:49;;;;;;;5.33;2.15;;;;;;;18.39;62.39;100660.13;464245;111;922936;-68
2021/05/28 03:10:53;;;;;;;6.14;2.41;;;;;;;18.40;62.24;100654.36;464292;113;922528;-67
2021/05/28 03:12:02;;;;;;;4.23;2.54;;;;;;;18.40;62.22;100657.11;463603;111;926822;-67
2021/05/28 03:13:05;;;;;;;6.58;2.65;;;;;;;18.40;62.31;100659.88;470956;111;924426;-69
2021/05/28 03:14:10;;;;;;;4.07;2.14;;;;;;;18.41;62.37;100656.02;471937;111;924068;-69
2021/05/28 03:15:15;;;;;;;4.25;2.19;;;;;;;18.42;62.00;100663.19;473076;111;930461;-67
2021/05/28 03:16:19;;;;;;;5.31;2.09;;;;;;;18.42;61.95;100663.19;463472;114;924487;-68
2021/05/28 03:17:23;;;;;;;8.55;2.59;;;;;;;18.43;62.02;100664.85;464376;111;923969;-67
2021/05/28 03:18:35;;;;;;;3.10;1.98;;;;;;;18.46;61.92;100669.86;470968;111;924336;-67
2021/05/28 03:19:41;;;;;;;7.91;2.61;;;;;;;18.47;61.78;100668.73;472710;111;923904;-67
2021/05/28 03:20:45;;;;;;;8.61;2.39;;;;;;;18.50;61.78;100665.47;461915;114;923072;-66
2021/05/28 03:23:10;;;;;;;6.23;2.07;;;;;;;18.54;61.52;100660.23;462139;113;923122;-68
2021/05/28 03:24:14;;;;;;;8.36;2.48;;;;;;;18.54;61.57;100661.11;460422;114;924387;-68
2021/05/28 03:25:20;;;;;;;5.15;2.78;;;;;;;18.56;61.59;100672.73;461328;114;924078;-67
2021/05/28 03:26:28;;;;;;;6.31;2.58;;;;;;;18.57;61.60;100663.35;461367;113;924539;-67
2021/05/28 03:27:33;;;;;;;7.70;2.34;;;;;;;18.58;61.63;100667.75;462231;114;922921;-67
2021/05/28 03:28:37;;;;;;;6.61;2.47;;;;;;;18.59;61.60;100663.90;461602;114;923017;-67
2021/05/28 03:29:40;;;;;;;7.90;2.37;;;;;;;18.61;61.57;100670.00;461646;113;923044;-70
2021/05/28 03:30:45;;;;;;;6.57;2.11;;;;;;;18.63;61.41;100659.53;461201;111;930829;-67
2021/05/28 03:31:49;;;;;;;10.88;2.95;;;;;;;18.65;61.47;100665.59;461402;111;924099;-69
2021/05/28 03:32:53;;;;;;;6.61;2.26;;;;;;;18.67;61.50;100665.34;461288;114;924504;-67
2021/05/28 03:33:57;;;;;;;8.49;2.42;;;;;;;18.70;61.37;100659.27;461784;111;925059;-68
2021/05/28 03:35:01;;;;;;;5.44;2.55;;;;;;;18.70;61.14;100662.88;461659;113;933745;-67
2021/05/28 03:36:06;;;;;;;7.05;2.42;;;;;;;18.73;61.09;100654.06;462405;113;922939;-68
2021/05/28 03:37:12;;;;;;;8.64;2.74;;;;;;;18.74;61.10;100655.70;461478;114;925800;-68
2021/05/28 03:38:16;;;;;;;5.33;2.27;;;;;;;18.77;61.09;100656.28;461309;114;922867;-67
2021/05/28 03:39:19;;;;;;;6.69;2.69;;;;;;;18.79;60.93;100659.62;460997;111;926417;-68
2021/05/28 03:40:25;;;;;;;8.97;2.64;;;;;;;18.80;60.82;100653.80;462405;114;932933;-68
2021/05/28 03:41:28;;;;;;;6.85;2.84;;;;;;;18.82;60.74;100659.91;461098;114;922461;-68
2021/05/28 03:42:32;;;;;;;7.56;2.18;;;;;;;18.83;60.59;100660.74;460852;113;925358;-66
2021/05/28 03:43:37;;;;;;;6.27;2.23;;;;;;;18.84;60.55;100662.41;462649;111;923161;-69
2021/05/28 03:44:40;;;;;;;6.22;2.50;;;;;;;18.85;60.56;100667.67;461900;113;923140;-69
2021/05/28 03:45:45;;;;;;;7.79;2.94;;;;;;;18.87;60.53;100670.15;462314;114;922604;-67
2021/05/28 03:46:49;;;;;;;7.16;2.99;;;;;;;18.87;60.45;100670.98;462051;111;930938;-67
2021/05/28 03:47:52;;;;;;;5.27;2.26;;;;;;;18.89;60.17;100673.48;461494;111;922657;-69
2021/05/28 03:48:56;;;;;;;7.94;2.72;;;;;;;18.90;60.00;100669.62;461036;113;930404;-68
2021/05/28 03:50:00;;;;;;;4.91;2.45;;;;;;;18.92;59.85;100670.17;462841;114;922934;-67
2021/05/28 03:51:04;;;;;;;5.74;2.75;;;;;;;18.93;59.84;100669.08;461823;114;923455;-67
2021/05/28 03:52:10;;;;;;;9.44;2.46;;;;;;;18.96;59.79;100663.04;454952;115;923876;-68
2021/05/28 03:53:14;;;;;;;6.04;2.54;;;;;;;18.98;59.72;100674.63;448738;116;930541;-67
2021/05/28 03:54:18;;;;;;;11.57;3.05;;;;;;;18.99;59.61;100665.25;456759;113;922781;-70
2021/05/28 03:55:22;;;;;;;8.97;4.17;;;;;;;19.02;59.59;100668.30;456017;115;930601;-66
2021/05/28 03:56:27;;;;;;;10.57;3.58;;;;;;;19.04;59.48;100665.27;455284;114;922636;-69
2021/05/28 03:57:30;;;;;;;8.65;3.18;;;;;;;19.07;59.34;100671.12;460871;113;922823;-69
2021/05/28 03:58:34;;;;;;;6.01;2.42;;;;;;;19.10;59.38;100665.04;462132;114;922997;-70
2021/05/28 03:59:38;;;;;;;7.12;3.04;;;;;;;19.12;59.41;100667.55;462272;111;922950;-67
2021/05/28 04:00:42;;;;;;;6.93;3.18;;;;;;;19.14;59.44;100668.08;461827;113;930716;-68
2021/05/28 04:01:46;;;;;;;7.74;2.32;;;;;;;19.18;59.42;100671.16;462008;113;922554;-69
2021/05/28 04:02:49;;;;;;;9.06;2.29;;;;;;;19.20;59.45;100668.94;462491;114;922433;-67
2021/05/28 04:03:53;;;;;;;10.61;2.96;;;;;;;19.22;59.54;100669.52;462051;111;930452;-68
2021/05/28 04:04:56;;;;;;;9.73;3.11;;;;;;;19.23;59.47;100669.25;462905;113;924323;-69
2021/05/28 04:06:01;;;;;;;5.24;2.66;;;;;;;19.25;59.38;100667.03;461720;113;922489;-68
2021/05/28 04:07:05;;;;;;;13.04;2.72;;;;;;;19.27;59.19;100669.53;462290;114;924053;-67
2021/05/28 04:08:10;;;;;;;7.36;2.74;;;;;;;19.27;59.01;100664.84;461776;113;923080;-68
2021/05/28 04:09:14;;;;;;;5.21;2.34;;;;;;;19.26;58.90;100671.46;462261;114;922430;-68
2021/05/28 04:10:18;;;;;;;11.42;3.03;;;;;;;19.24;58.88;100659.03;461366;113;922903;-67
2021/05/28 04:11:21;;;;;;;11.52;2.71;;;;;;;19.22;59.00;100667.58;463050;114;922362;-68
2021/05/28 04:12:26;;;;;;;14.31;2.92;;;;;;;19.19;59.21;100668.10;460971;113;932454;-68
2021/05/28 04:13:31;;;;;;;9.54;2.70;;;;;;;19.18;59.49;100663.70;462468;111;922905;-67
2021/05/28 04:14:36;;;;;;;6.01;2.54;;;;;;;19.18;59.57;100663.70;461392;113;931973;-66
2021/05/28 04:15:40;;;;;;;8.05;2.83;;;;;;;19.18;59.58;100672.00;462791;111;924423;-68
2021/05/28 04:16:45;;;;;;;6.29;2.22;;;;;;;19.18;59.60;100655.41;460841;114;924901;-68
2021/05/28 04:17:50;;;;;;;7.66;2.52;;;;;;;19.19;59.61;100665.34;461548;113;925716;-69
2021/05/28 04:18:54;;;;;;;6.70;3.00;;;;;;;19.19;59.61;100662.58;461849;114;923150;-68
2021/05/28 04:19:58;;;;;;;9.60;2.70;;;;;;;19.18;59.53;100658.98;461431;114;931948;-68
2021/05/28 04:21:02;;;;;;;6.79;3.31;;;;;;;19.19;59.56;100665.34;462692;113;924991;-68
2021/05/28 04:22:06;;;;;;;10.74;3.50;;;;;;;19.18;59.61;100658.98;460636;111;926009;-68
2021/05/28 04:23:11;;;;;;;15.69;3.39;;;;;;;19.21;59.65;100659.55;463956;111;932659;-68
2021/05/28 04:24:16;;;;;;;11.82;3.34;;;;;;;19.23;59.61;100654.59;464647;113;924549;-69
2021/05/28 04:25:20;;;;;;;14.04;4.65;;;;;;;19.24;59.70;100657.06;464734;113;932469;-67
2021/05/28 04:26:24;;;;;;;9.95;3.56;;;;;;;19.27;59.73;100651.02;464754;113;924116;-68
2021/05/28 04:27:29;;;;;;;11.07;3.78;;;;;;;19.29;59.76;100654.35;464215;113;924176;-67
2021/05/28 04:28:34;;;;;;;14.12;3.94;;;;;;;19.32;59.76;100644.67;464913;113;924064;-66
2021/05/28 04:29:38;;;;;;;9.43;3.85;;;;;;;19.34;59.61;100651.60;464493;111;924751;-68
2021/05/28 04:30:44;;;;;;;15.74;3.80;;;;;;;19.35;59.53;100652.44;464902;113;924519;-68
2021/05/28 04:31:48;;;;;;;14.49;5.71;;;;;;;19.35;59.47;100653.23;465211;113;922463;-68
2021/05/28 04:32:54;;;;;;;14.64;5.84;;;;;;;19.37;59.54;100651.05;465050;113;925755;-69
2021/05/28 04:34:08;;;;;;;14.14;5.97;;;;;;;19.38;59.59;100654.64;465000;113;922644;-69
2021/05/28 04:35:36;;;;;;;12.96;4.01;;;;;;;19.40;59.55;100655.22;454247;113;922705;-71
2021/05/28 04:36:42;;;;;;;22.74;5.46;;;;;;;19.43;59.13;100652.73;448007;117;923162;-72
2021/05/28 04:37:45;;;;;;;5.24;3.34;;;;;;;19.47;58.99;100653.04;456401;115;925500;-72
2021/05/28 04:38:49;;;;;;;7.11;3.64;;;;;;;19.49;58.63;100657.21;456639;115;924502;-70
2021/05/28 04:39:53;;;;;;;12.15;2.90;;;;;;;19.52;58.57;100658.58;450588;115;924103;-72
2021/05/28 04:40:58;;;;;;;6.71;3.09;;;;;;;19.55;58.45;100658.89;448677;118;932762;-72
2021/05/28 04:42:02;;;;;;;8.65;3.11;;;;;;;19.58;58.48;100654.73;436404;116;924173;-71
2021/05/28 04:43:07;;;;;;;14.80;3.02;;;;;;;19.61;58.48;100658.91;454283;114;930560;-71
2021/05/28 04:44:10;;;;;;;12.39;3.14;;;;;;;19.65;58.44;100654.48;456105;115;924317;-69
2021/05/28 04:45:15;;;;;;;11.31;2.75;;;;;;;19.68;58.09;100653.95;456631;115;925726;-73
2021/05/28 04:46:20;;;;;;;9.89;2.17;;;;;;;19.72;57.69;100655.05;456734;115;931349;-72
2021/05/28 04:47:24;;;;;;;9.18;2.48;;;;;;;19.75;57.27;100655.33;456404;115;924552;-72
2021/05/28 04:48:31;;;;;;;11.64;2.81;;;;;;;19.78;56.84;100656.73;456016;113;922582;-72
2021/05/28 04:49:36;;;;;;;6.91;2.22;;;;;;;19.81;56.43;100656.17;456832;115;927038;-71
2021/05/28 04:50:40;;;;;;;10.87;2.61;;;;;;;19.84;56.11;100656.48;456580;115;922535;-71
2021/05/28 04:51:44;;;;;;;9.09;2.57;;;;;;;19.88;55.62;100651.21;456545;115;922937;-71
2021/05/28 04:52:48;;;;;;;8.60;2.63;;;;;;;19.90;55.50;100649.81;456715;115;930467;-72
2021/05/28 04:53:52;;;;;;;6.45;2.47;;;;;;;19.93;55.06;100651.22;456605;115;930364;-72
2021/05/28 04:54:55;;;;;;;10.61;2.33;;;;;;;19.96;54.80;100654.25;456351;113;931998;-70
2021/05/28 04:55:59;;;;;;;5.46;2.34;;;;;;;19.97;54.61;100653.16;455564;115;924040;-73
2021/05/28 04:57:03;;;;;;;12.88;2.79;;;;;;;20.00;54.50;100649.02;456757;113;924144;-72
2021/05/28 04:58:06;;;;;;;5.77;2.38;;;;;;;20.03;54.32;100655.92;457212;115;930461;-72